createdAt,value
2018-09-28T00:05:55.482Z,94.14
2018-09-28T00:26:30.757Z,94.57
2018-09-28T00:47:07.874Z,94.95
2018-09-28T01:07:46.219Z,94.43
2018-09-28T01:28:25.487Z,94.98
2018-09-28T01:49:07.823Z,94.87
2018-09-28T02:09:50.164Z,94.42
2018-09-28T02:30:32.500Z,95.61
2018-09-28T02:51:12.687Z,95.21
2018-09-28T03:11:51.249Z,95.90
2018-09-28T03:32:29.068Z,95.05
2018-09-28T03:53:09.566Z,94.64
2018-09-28T04:13:49.748Z,94.30
2018-09-28T04:34:31.166Z,94.87
2018-09-28T04:55:09.506Z,94.57
2018-09-28T05:15:51.894Z,94.72
2018-09-28T05:36:30.808Z,94.89
2018-09-28T05:57:07.306Z,95.16
2018-09-28T06:17:43.506Z,95.62
2018-09-28T06:38:22.771Z,96.26
2018-09-28T06:59:04.201Z,97.82
2018-09-28T07:19:42.218Z,98.82
2018-09-28T07:40:21.488Z,100.00
2018-09-28T08:01:02.904Z,100.00
2018-09-28T08:21:41.872Z,100.00
2018-09-28T08:42:20.559Z,100.00
2018-09-28T09:03:01.624Z,100.00
2018-09-28T09:23:42.736Z,100.00
2018-09-28T09:44:19.375Z,98.84
2018-09-28T10:05:01.268Z,87.34
2018-09-28T10:25:41.762Z,81.64
2018-09-28T10:46:21.948Z,69.16
2018-09-28T11:07:01.216Z,68.00
2018-09-28T11:27:40.551Z,60.76
2018-09-28T11:48:22.817Z,60.07
2018-09-28T12:09:06.403Z,63.08
2018-09-28T12:29:43.775Z,59.13
2018-09-28T12:50:25.556Z,57.84
2018-09-28T13:11:06.027Z,63.51
2018-09-28T13:31:43.139Z,62.68
2018-09-28T13:52:21.529Z,64.91
2018-09-28T14:13:04.029Z,72.20
2018-09-28T14:33:40.030Z,79.54
2018-09-28T14:54:17.146Z,82.75
2018-09-28T15:14:58.549Z,86.66
2018-09-28T15:35:35.674Z,91.70
2018-09-28T15:56:12.443Z,96.73
2018-09-28T16:16:51.434Z,98.92
2018-09-28T16:37:27.625Z,100.00
2018-09-28T16:58:10.889Z,100.00
2018-09-28T17:18:55.439Z,100.00
2018-09-28T17:39:33.409Z,98.54
2018-09-28T18:00:15.749Z,96.10
2018-09-28T18:20:57.913Z,95.42
2018-09-28T18:41:40.119Z,94.43
2018-09-28T19:02:22.871Z,92.78
2018-09-28T19:23:04.797Z,92.27
2018-09-28T19:43:48.357Z,92.32
2018-09-28T20:04:25.484Z,91.73
2018-09-28T20:25:06.037Z,90.90
2018-09-28T20:45:47.075Z,90.81
2018-09-28T21:06:29.425Z,91.40
2018-09-28T21:27:04.978Z,91.37
2018-09-28T21:47:41.805Z,91.29
2018-09-28T22:08:19.226Z,91.34
2018-09-28T22:28:58.186Z,92.27
2018-09-28T22:49:40.525Z,91.50
2018-09-28T23:10:17.026Z,91.26
2018-09-28T23:30:52.296Z,91.83
2018-09-28T23:51:30.329Z,92.01
